sensor_id;sensor_type;location;lat;lon;timestamp;temperature;humidity
46730;DHT22;32476;50.002;11.854;2023-05-29T00:01:53;12.20;86.60
46730;DHT22;32476;50.002;11.854;2023-05-29T00:04:19;12.20;87.60
46730;DHT22;32476;50.002;11.854;2023-05-29T00:06:47;12.10;87.50
46730;DHT22;32476;50.002;11.854;2023-05-29T00:09:14;12.10;87.90
46730;DHT22;32476;50.002;11.854;2023-05-29T00:11:40;12.00;88.50
46730;DHT22;32476;50.002;11.854;2023-05-29T00:14:06;11.90;89.50
46730;DHT22;32476;50.002;11.854;2023-05-29T00:16:34;11.70;90.20
46730;DHT22;32476;50.002;11.854;2023-05-29T00:19:00;11.50;90.40
46730;DHT22;32476;50.002;11.854;2023-05-29T00:21:25;11.30;91.10
46730;DHT22;32476;50.002;11.854;2023-05-29T00:23:53;11.20;91.90
46730;DHT22;32476;50.002;11.854;2023-05-29T00:26:18;11.10;92.30
46730;DHT22;32476;50.002;11.854;2023-05-29T00:28:44;10.90;93.00
46730;DHT22;32476;50.002;11.854;2023-05-29T00:31:11;10.80;93.30
46730;DHT22;32476;50.002;11.854;2023-05-29T00:33:37;10.60;94.20
46730;DHT22;32476;50.002;11.854;2023-05-29T00:36:03;10.50;95.10
46730;DHT22;32476;50.002;11.854;2023-05-29T00:38:31;10.40;94.90
46730;DHT22;32476;50.002;11.854;2023-05-29T00:40:56;10.30;95.90
46730;DHT22;32476;50.002;11.854;2023-05-29T00:43:24;10.30;96.30
46730;DHT22;32476;50.002;11.854;2023-05-29T00:45:51;10.20;96.70
46730;DHT22;32476;50.002;11.854;2023-05-29T00:48:17;10.10;97.00
46730;DHT22;32476;50.002;11.854;2023-05-29T00:50:43;9.90;98.50
46730;DHT22;32476;50.002;11.854;2023-05-29T00:53:11;10.00;98.50
46730;DHT22;32476;50.002;11.854;2023-05-29T00:55:37;9.90;99.00
46730;DHT22;32476;50.002;11.854;2023-05-29T00:58:04;10.00;99.10
46730;DHT22;32476;50.002;11.854;2023-05-29T01:00:32;9.80;99.20
46730;DHT22;32476;50.002;11.854;2023-05-29T01:03:00;9.80;99.70
46730;DHT22;32476;50.002;11.854;2023-05-29T01:05:33;9.70;99.50
46730;DHT22;32476;50.002;11.854;2023-05-29T01:08:00;9.60;99.90
46730;DHT22;32476;50.002;11.854;2023-05-29T01:10:27;9.60;99.90
46730;DHT22;32476;50.002;11.854;2023-05-29T01:13:01;9.70;99.90
46730;DHT22;32476;50.002;11.854;2023-05-29T01:15:51;9.60;99.90
46730;DHT22;32476;50.002;11.854;2023-05-29T01:21:23;9.40;99.90
46730;DHT22;32476;50.002;11.854;2023-05-29T01:27:09;9.30;99.90
46730;DHT22;32476;50.002;11.854;2023-05-29T01:29:37;9.30;99.90
46730;DHT22;32476;50.002;11.854;2023-05-29T01:32:05;9.20;99.90
46730;DHT22;32476;50.002;11.854;2023-05-29T01:34:32;9.20;99.90
46730;DHT22;32476;50.002;11.854;2023-05-29T01:36:58;9.10;99.90
46730;DHT22;32476;50.002;11.854;2023-05-29T01:39:25;9.20;99.90
46730;DHT22;32476;50.002;11.854;2023-05-29T01:41:53;9.20;99.90
46730;DHT22;32476;50.002;11.854;2023-05-29T01:44:20;9.20;99.90
46730;DHT22;32476;50.002;11.854;2023-05-29T01:46:47;9.00;99.90
46730;DHT22;32476;50.002;11.854;2023-05-29T01:49:16;8.90;99.90
46730;DHT22;32476;50.002;11.854;2023-05-29T01:51:42;9.00;99.90
46730;DHT22;32476;50.002;11.854;2023-05-29T01:54:08;9.20;99.90
46730;DHT22;32476;50.002;11.854;2023-05-29T01:56:36;9.50;99.90
46730;DHT22;32476;50.002;11.854;2023-05-29T01:59:03;9.80;99.90
46730;DHT22;32476;50.002;11.854;2023-05-29T02:01:30;9.80;99.90
46730;DHT22;32476;50.002;11.854;2023-05-29T02:03:58;10.00;99.90
46730;DHT22;32476;50.002;11.854;2023-05-29T02:06:23;10.20;99.90
46730;DHT22;32476;50.002;11.854;2023-05-29T02:08:50;10.20;99.90
46730;DHT22;32476;50.002;11.854;2023-05-29T02:11:17;10.20;99.90
46730;DHT22;32476;50.002;11.854;2023-05-29T02:13:43;10.30;99.90
46730;DHT22;32476;50.002;11.854;2023-05-29T02:16:09;10.30;99.90
46730;DHT22;32476;50.002;11.854;2023-05-29T02:18:36;10.50;99.90
46730;DHT22;32476;50.002;11.854;2023-05-29T02:21:02;10.50;99.90
46730;DHT22;32476;50.002;11.854;2023-05-29T02:23:28;10.40;99.90
46730;DHT22;32476;50.002;11.854;2023-05-29T02:25:55;10.10;99.90
46730;DHT22;32476;50.002;11.854;2023-05-29T02:28:21;9.90;99.90
46730;DHT22;32476;50.002;11.854;2023-05-29T02:30:47;9.80;99.90
46730;DHT22;32476;50.002;11.854;2023-05-29T02:33:14;9.70;99.90
46730;DHT22;32476;50.002;11.854;2023-05-29T02:35:40;9.60;99.90
46730;DHT22;32476;50.002;11.854;2023-05-29T02:38:06;9.40;99.90
46730;DHT22;32476;50.002;11.854;2023-05-29T02:40:33;9.30;99.90
46730;DHT22;32476;50.002;11.854;2023-05-29T02:42:59;9.30;99.90
46730;DHT22;32476;50.002;11.854;2023-05-29T02:45:24;9.20;99.90
46730;DHT22;32476;50.002;11.854;2023-05-29T02:47:52;9.10;99.90
46730;DHT22;32476;50.002;11.854;2023-05-29T02:50:18;9.40;99.90
46730;DHT22;32476;50.002;11.854;2023-05-29T02:52:44;9.50;99.90
46730;DHT22;32476;50.002;11.854;2023-05-29T02:55:11;9.80;99.90
46730;DHT22;32476;50.002;11.854;2023-05-29T02:57:37;10.00;99.90
46730;DHT22;32476;50.002;11.854;2023-05-29T03:00:03;10.20;99.90
46730;DHT22;32476;50.002;11.854;2023-05-29T03:02:35;10.40;99.90
46730;DHT22;32476;50.002;11.854;2023-05-29T03:05:01;10.60;99.90
46730;DHT22;32476;50.002;11.854;2023-05-29T03:07:27;10.70;99.90
46730;DHT22;32476;50.002;11.854;2023-05-29T03:09:54;10.70;99.90
46730;DHT22;32476;50.002;11.854;2023-05-29T03:12:21;10.80;99.90
46730;DHT22;32476;50.002;11.854;2023-05-29T03:14:47;10.80;99.90
46730;DHT22;32476;50.002;11.854;2023-05-29T03:17:14;10.70;99.90
46730;DHT22;32476;50.002;11.854;2023-05-29T03:19:40;10.70;99.90
46730;DHT22;32476;50.002;11.854;2023-05-29T03:22:05;10.70;99.90
46730;DHT22;32476;50.002;11.854;2023-05-29T03:24:33;10.70;99.90
46730;DHT22;32476;50.002;11.854;2023-05-29T03:27:01;10.70;99.90
46730;DHT22;32476;50.002;11.854;2023-05-29T03:29:29;10.70;99.90
46730;DHT22;32476;50.002;11.854;2023-05-29T03:31:57;10.60;99.90
46730;DHT22;32476;50.002;11.854;2023-05-29T03:34:22;10.60;99.90
46730;DHT22;32476;50.002;11.854;2023-05-29T03:36:48;10.50;99.90
46730;DHT22;32476;50.002;11.854;2023-05-29T03:39:16;10.50;99.90
46730;DHT22;32476;50.002;11.854;2023-05-29T03:41:42;10.50;99.90
46730;DHT22;32476;50.002;11.854;2023-05-29T03:44:07;10.40;99.90
46730;DHT22;32476;50.002;11.854;2023-05-29T03:46:35;10.30;99.90
46730;DHT22;32476;50.002;11.854;2023-05-29T03:49:01;10.20;99.90
46730;DHT22;32476;50.002;11.854;2023-05-29T03:51:27;10.20;99.90
46730;DHT22;32476;50.002;11.854;2023-05-29T03:53:54;10.20;99.90
46730;DHT22;32476;50.002;11.854;2023-05-29T03:56:20;10.10;99.90
46730;DHT22;32476;50.002;11.854;2023-05-29T03:58:47;10.20;99.90
46730;DHT22;32476;50.002;11.854;2023-05-29T04:01:14;10.20;99.90
46730;DHT22;32476;50.002;11.854;2023-05-29T04:03:40;10.20;99.90
46730;DHT22;32476;50.002;11.854;2023-05-29T04:06:06;10.20;99.90
46730;DHT22;32476;50.002;11.854;2023-05-29T04:08:33;10.20;99.90
46730;DHT22;32476;50.002;11.854;2023-05-29T04:10:59;10.20;99.90
46730;DHT22;32476;50.002;11.854;2023-05-29T04:13:25;10.20;99.90
46730;DHT22;32476;50.002;11.854;2023-05-29T04:15:52;10.30;99.90
46730;DHT22;32476;50.002;11.854;2023-05-29T04:18:19;10.30;99.90
46730;DHT22;32476;50.002;11.854;2023-05-29T04:20:46;10.30;99.90
46730;DHT22;32476;50.002;11.854;2023-05-29T04:23:14;10.30;99.90
46730;DHT22;32476;50.002;11.854;2023-05-29T04:25:40;10.40;99.90
46730;DHT22;32476;50.002;11.854;2023-05-29T04:28:06;10.50;99.90
46730;DHT22;32476;50.002;11.854;2023-05-29T04:30:33;10.50;99.90
46730;DHT22;32476;50.002;11.854;2023-05-29T04:32:59;10.60;99.90
46730;DHT22;32476;50.002;11.854;2023-05-29T04:35:25;10.70;99.90
46730;DHT22;32476;50.002;11.854;2023-05-29T04:37:52;10.70;99.90
46730;DHT22;32476;50.002;11.854;2023-05-29T04:40:18;10.80;99.90
46730;DHT22;32476;50.002;11.854;2023-05-29T04:42:47;10.90;99.90
46730;DHT22;32476;50.002;11.854;2023-05-29T04:45:14;10.90;99.90
46730;DHT22;32476;50.002;11.854;2023-05-29T04:47:40;11.00;99.90
46730;DHT22;32476;50.002;11.854;2023-05-29T04:50:17;11.00;99.90
46730;DHT22;32476;50.002;11.854;2023-05-29T04:52:45;11.20;99.90
46730;DHT22;32476;50.002;11.854;2023-05-29T04:55:11;11.40;99.90
46730;DHT22;32476;50.002;11.854;2023-05-29T04:57:37;11.60;99.90
46730;DHT22;32476;50.002;11.854;2023-05-29T05:00:05;11.60;99.90
46730;DHT22;32476;50.002;11.854;2023-05-29T05:02:34;11.60;99.90
46730;DHT22;32476;50.002;11.854;2023-05-29T05:05:00;11.60;99.90
46730;DHT22;32476;50.002;11.854;2023-05-29T05:07:27;11.60;99.90
46730;DHT22;32476;50.002;11.854;2023-05-29T05:09:53;11.60;99.90
46730;DHT22;32476;50.002;11.854;2023-05-29T05:12:18;11.80;99.90
46730;DHT22;32476;50.002;11.854;2023-05-29T05:14:46;11.80;99.90
46730;DHT22;32476;50.002;11.854;2023-05-29T05:17:12;11.90;99.90
46730;DHT22;32476;50.002;11.854;2023-05-29T05:19:38;11.90;99.90
46730;DHT22;32476;50.002;11.854;2023-05-29T05:22:05;12.00;99.90
46730;DHT22;32476;50.002;11.854;2023-05-29T05:24:31;12.00;99.90
46730;DHT22;32476;50.002;11.854;2023-05-29T05:26:57;12.00;99.90
46730;DHT22;32476;50.002;11.854;2023-05-29T05:29:25;12.20;99.90
46730;DHT22;32476;50.002;11.854;2023-05-29T05:31:51;12.30;99.90
46730;DHT22;32476;50.002;11.854;2023-05-29T05:34:16;12.40;99.90
46730;DHT22;32476;50.002;11.854;2023-05-29T05:36:44;12.50;99.90
46730;DHT22;32476;50.002;11.854;2023-05-29T05:39:10;12.80;98.90
46730;DHT22;32476;50.002;11.854;2023-05-29T05:41:35;13.10;97.90
46730;DHT22;32476;50.002;11.854;2023-05-29T05:44:03;13.10;97.90
46730;DHT22;32476;50.002;11.854;2023-05-29T05:46:28;13.10;97.30
46730;DHT22;32476;50.002;11.854;2023-05-29T05:48:54;13.40;96.20
46730;DHT22;32476;50.002;11.854;2023-05-29T05:51:25;13.70;96.30
46730;DHT22;32476;50.002;11.854;2023-05-29T05:53:50;13.80;95.90
46730;DHT22;32476;50.002;11.854;2023-05-29T05:56:16;14.00;95.50
46730;DHT22;32476;50.002;11.854;2023-05-29T05:58:44;14.10;95.90
46730;DHT22;32476;50.002;11.854;2023-05-29T06:01:10;14.20;95.30
46730;DHT22;32476;50.002;11.854;2023-05-29T06:03:36;14.20;95.30
46730;DHT22;32476;50.002;11.854;2023-05-29T06:06:04;14.20;95.20
46730;DHT22;32476;50.002;11.854;2023-05-29T06:08:30;14.20;95.50
46730;DHT22;32476;50.002;11.854;2023-05-29T06:10:56;14.30;94.40
46730;DHT22;32476;50.002;11.854;2023-05-29T06:13:23;14.40;95.00
46730;DHT22;32476;50.002;11.854;2023-05-29T06:15:49;14.50;94.10
46730;DHT22;32476;50.002;11.854;2023-05-29T06:18:15;14.60;95.50
46730;DHT22;32476;50.002;11.854;2023-05-29T06:20:43;14.70;94.60
46730;DHT22;32476;50.002;11.854;2023-05-29T06:23:08;14.80;93.50
46730;DHT22;32476;50.002;11.854;2023-05-29T06:25:34;14.80;93.50
46730;DHT22;32476;50.002;11.854;2023-05-29T06:28:02;15.00;93.00
46730;DHT22;32476;50.002;11.854;2023-05-29T06:30:28;15.00;92.20
46730;DHT22;32476;50.002;11.854;2023-05-29T06:32:54;15.10;92.40
46730;DHT22;32476;50.002;11.854;2023-05-29T06:35:21;15.10;92.40
46730;DHT22;32476;50.002;11.854;2023-05-29T06:37:47;15.20;92.00
46730;DHT22;32476;50.002;11.854;2023-05-29T06:40:13;15.20;90.10
46730;DHT22;32476;50.002;11.854;2023-05-29T06:42:42;15.20;91.60
46730;DHT22;32476;50.002;11.854;2023-05-29T06:45:11;15.40;90.70
46730;DHT22;32476;50.002;11.854;2023-05-29T06:47:42;15.40;87.70
46730;DHT22;32476;50.002;11.854;2023-05-29T06:50:08;15.50;88.60
46730;DHT22;32476;50.002;11.854;2023-05-29T06:52:34;15.50;84.70
46730;DHT22;32476;50.002;11.854;2023-05-29T06:55:02;15.60;84.70
46730;DHT22;32476;50.002;11.854;2023-05-29T06:57:28;15.70;87.10
46730;DHT22;32476;50.002;11.854;2023-05-29T06:59:54;15.80;85.60
46730;DHT22;32476;50.002;11.854;2023-05-29T07:02:21;16.00;85.60
46730;DHT22;32476;50.002;11.854;2023-05-29T07:04:47;16.10;84.90
46730;DHT22;32476;50.002;11.854;2023-05-29T07:07:12;16.20;83.10
46730;DHT22;32476;50.002;11.854;2023-05-29T07:09:40;16.40;83.00
46730;DHT22;32476;50.002;11.854;2023-05-29T07:12:06;16.40;80.50
46730;DHT22;32476;50.002;11.854;2023-05-29T07:14:31;16.60;80.80
46730;DHT22;32476;50.002;11.854;2023-05-29T07:16:59;16.80;81.20
46730;DHT22;32476;50.002;11.854;2023-05-29T07:19:25;16.70;78.10
46730;DHT22;32476;50.002;11.854;2023-05-29T07:21:50;16.80;77.90
46730;DHT22;32476;50.002;11.854;2023-05-29T07:24:18;17.00;81.60
46730;DHT22;32476;50.002;11.854;2023-05-29T07:26:43;17.00;79.90
46730;DHT22;32476;50.002;11.854;2023-05-29T07:29:09;17.30;78.70
46730;DHT22;32476;50.002;11.854;2023-05-29T07:31:37;17.20;79.40
46730;DHT22;32476;50.002;11.854;2023-05-29T07:34:06;17.50;81.20
46730;DHT22;32476;50.002;11.854;2023-05-29T07:36:31;17.60;79.60
46730;DHT22;32476;50.002;11.854;2023-05-29T07:38:59;17.90;79.20
46730;DHT22;32476;50.002;11.854;2023-05-29T07:41:25;18.10;77.60
46730;DHT22;32476;50.002;11.854;2023-05-29T07:43:54;18.00;73.90
46730;DHT22;32476;50.002;11.854;2023-05-29T07:46:22;17.90;75.80
46730;DHT22;32476;50.002;11.854;2023-05-29T07:48:48;18.00;78.00
46730;DHT22;32476;50.002;11.854;2023-05-29T07:51:14;18.20;77.50
46730;DHT22;32476;50.002;11.854;2023-05-29T07:53:44;18.10;73.00
46730;DHT22;32476;50.002;11.854;2023-05-29T07:56:11;18.00;76.60
46730;DHT22;32476;50.002;11.854;2023-05-29T07:58:36;18.30;74.90
46730;DHT22;32476;50.002;11.854;2023-05-29T08:01:04;18.20;75.10
46730;DHT22;32476;50.002;11.854;2023-05-29T08:03:30;18.80;73.80
46730;DHT22;32476;50.002;11.854;2023-05-29T08:05:56;19.10;75.20
46730;DHT22;32476;50.002;11.854;2023-05-29T08:08:24;19.40;72.10
46730;DHT22;32476;50.002;11.854;2023-05-29T08:10:50;19.80;70.70
46730;DHT22;32476;50.002;11.854;2023-05-29T08:13:16;19.80;73.70
46730;DHT22;32476;50.002;11.854;2023-05-29T08:15:43;19.80;69.20
46730;DHT22;32476;50.002;11.854;2023-05-29T08:18:09;19.50;69.30
46730;DHT22;32476;50.002;11.854;2023-05-29T08:20:35;19.20;68.00
46730;DHT22;32476;50.002;11.854;2023-05-29T08:23:02;19.40;67.40
46730;DHT22;32476;50.002;11.854;2023-05-29T08:25:28;19.40;68.90
46730;DHT22;32476;50.002;11.854;2023-05-29T08:27:54;19.60;67.40
46730;DHT22;32476;50.002;11.854;2023-05-29T08:30:21;19.40;67.80
46730;DHT22;32476;50.002;11.854;2023-05-29T08:32:47;19.30;66.50
46730;DHT22;32476;50.002;11.854;2023-05-29T08:35:13;19.60;67.80
46730;DHT22;32476;50.002;11.854;2023-05-29T08:37:40;20.00;66.90
46730;DHT22;32476;50.002;11.854;2023-05-29T08:40:06;20.20;66.40
46730;DHT22;32476;50.002;11.854;2023-05-29T08:42:38;21.00;69.40
46730;DHT22;32476;50.002;11.854;2023-05-29T08:45:10;21.30;67.60
46730;DHT22;32476;50.002;11.854;2023-05-29T08:47:39;21.60;66.10
46730;DHT22;32476;50.002;11.854;2023-05-29T08:50:07;21.50;65.40
46730;DHT22;32476;50.002;11.854;2023-05-29T08:52:35;21.30;64.70
46730;DHT22;32476;50.002;11.854;2023-05-29T08:55:04;21.40;66.50
46730;DHT22;32476;50.002;11.854;2023-05-29T08:57:32;21.60;64.90
46730;DHT22;32476;50.002;11.854;2023-05-29T09:00:00;21.30;63.20
46730;DHT22;32476;50.002;11.854;2023-05-29T09:02:26;21.00;64.40
46730;DHT22;32476;50.002;11.854;2023-05-29T09:04:54;21.10;66.90
46730;DHT22;32476;50.002;11.854;2023-05-29T09:07:21;21.80;68.00
46730;DHT22;32476;50.002;11.854;2023-05-29T09:09:48;21.60;64.30
46730;DHT22;32476;50.002;11.854;2023-05-29T09:12:16;21.20;62.10
46730;DHT22;32476;50.002;11.854;2023-05-29T09:14:43;21.50;66.50
46730;DHT22;32476;50.002;11.854;2023-05-29T09:17:11;21.50;65.40
46730;DHT22;32476;50.002;11.854;2023-05-29T09:19:39;22.10;66.70
46730;DHT22;32476;50.002;11.854;2023-05-29T09:22:08;22.30;66.20
46730;DHT22;32476;50.002;11.854;2023-05-29T09:24:36;22.10;65.70
46730;DHT22;32476;50.002;11.854;2023-05-29T09:27:05;22.70;63.90
46730;DHT22;32476;50.002;11.854;2023-05-29T09:29:37;22.40;65.70
46730;DHT22;32476;50.002;11.854;2023-05-29T09:32:09;22.80;64.80
46730;DHT22;32476;50.002;11.854;2023-05-29T09:34:35;23.30;64.90
46730;DHT22;32476;50.002;11.854;2023-05-29T09:37:06;23.70;63.70
46730;DHT22;32476;50.002;11.854;2023-05-29T09:39:50;23.70;61.40
46730;DHT22;32476;50.002;11.854;2023-05-29T09:42:19;24.10;64.20
46730;DHT22;32476;50.002;11.854;2023-05-29T09:44:50;23.30;60.80
46730;DHT22;32476;50.002;11.854;2023-05-29T09:47:19;23.40;63.40
46730;DHT22;32476;50.002;11.854;2023-05-29T09:49:47;23.10;59.70
46730;DHT22;32476;50.002;11.854;2023-05-29T09:52:13;22.60;62.00
46730;DHT22;32476;50.002;11.854;2023-05-29T09:54:41;23.00;61.80
46730;DHT22;32476;50.002;11.854;2023-05-29T09:57:09;22.90;63.00
46730;DHT22;32476;50.002;11.854;2023-05-29T09:59:36;23.50;63.30
46730;DHT22;32476;50.002;11.854;2023-05-29T10:02:04;23.10;63.10
46730;DHT22;32476;50.002;11.854;2023-05-29T10:04:31;23.50;62.70
46730;DHT22;32476;50.002;11.854;2023-05-29T10:07:08;23.50;60.40
46730;DHT22;32476;50.002;11.854;2023-05-29T10:09:42;23.50;62.00
46730;DHT22;32476;50.002;11.854;2023-05-29T10:12:11;23.50;62.40
46730;DHT22;32476;50.002;11.854;2023-05-29T10:14:40;24.20;62.60
46730;DHT22;32476;50.002;11.854;2023-05-29T10:17:09;23.50;62.30
46730;DHT22;32476;50.002;11.854;2023-05-29T10:19:38;23.70;61.00
46730;DHT22;32476;50.002;11.854;2023-05-29T10:22:05;23.70;62.40
46730;DHT22;32476;50.002;11.854;2023-05-29T10:24:32;24.00;59.30
46730;DHT22;32476;50.002;11.854;2023-05-29T10:27:00;23.90;60.00
46730;DHT22;32476;50.002;11.854;2023-05-29T10:30:21;24.30;60.90
46730;DHT22;32476;50.002;11.854;2023-05-29T10:32:39;24.90;58.10
46730;DHT22;32476;50.002;11.854;2023-05-29T10:35:14;24.00;59.30
46730;DHT22;32476;50.002;11.854;2023-05-29T10:37:57;23.20;57.50
46730;DHT22;32476;50.002;11.854;2023-05-29T10:40:26;23.30;60.00
46730;DHT22;32476;50.002;11.854;2023-05-29T10:42:54;22.90;59.00
46730;DHT22;32476;50.002;11.854;2023-05-29T10:50:36;23.60;60.10
46730;DHT22;32476;50.002;11.854;2023-05-29T10:53:14;23.90;59.20
46730;DHT22;32476;50.002;11.854;2023-05-29T10:55:41;24.60;60.60
46730;DHT22;32476;50.002;11.854;2023-05-29T10:58:20;25.00;60.60
46730;DHT22;32476;50.002;11.854;2023-05-29T11:00:47;25.00;59.50
46730;DHT22;32476;50.002;11.854;2023-05-29T11:03:24;24.20;58.60
46730;DHT22;32476;50.002;11.854;2023-05-29T11:06:00;23.80;58.20
46730;DHT22;32476;50.002;11.854;2023-05-29T11:08:53;23.80;57.50
46730;DHT22;32476;50.002;11.854;2023-05-29T11:11:32;23.60;58.90
46730;DHT22;32476;50.002;11.854;2023-05-29T11:14:05;23.30;59.80
46730;DHT22;32476;50.002;11.854;2023-05-29T11:18:58;23.90;62.10
46730;DHT22;32476;50.002;11.854;2023-05-29T11:21:29;23.80;59.80
46730;DHT22;32476;50.002;11.854;2023-05-29T11:23:58;22.90;57.50
46730;DHT22;32476;50.002;11.854;2023-05-29T11:26:26;22.80;60.80
46730;DHT22;32476;50.002;11.854;2023-05-29T11:28:57;22.10;60.00
46730;DHT22;32476;50.002;11.854;2023-05-29T11:31:24;22.70;61.20
46730;DHT22;32476;50.002;11.854;2023-05-29T11:33:54;23.30;60.80
46730;DHT22;32476;50.002;11.854;2023-05-29T11:36:22;23.70;62.20
46730;DHT22;32476;50.002;11.854;2023-05-29T11:38:47;23.10;59.50
46730;DHT22;32476;50.002;11.854;2023-05-29T11:41:13;23.10;61.60
46730;DHT22;32476;50.002;11.854;2023-05-29T11:43:43;22.70;60.30
46730;DHT22;32476;50.002;11.854;2023-05-29T11:46:19;22.20;60.00
46730;DHT22;32476;50.002;11.854;2023-05-29T11:48:48;22.30;64.20
46730;DHT22;32476;50.002;11.854;2023-05-29T11:51:14;22.50;62.60
46730;DHT22;32476;50.002;11.854;2023-05-29T11:53:46;23.50;62.40
46730;DHT22;32476;50.002;11.854;2023-05-29T11:56:14;23.10;60.90
46730;DHT22;32476;50.002;11.854;2023-05-29T11:58:40;23.10;62.50
46730;DHT22;32476;50.002;11.854;2023-05-29T12:01:07;22.70;60.50
46730;DHT22;32476;50.002;11.854;2023-05-29T12:03:41;22.00;62.50
46730;DHT22;32476;50.002;11.854;2023-05-29T12:06:09;22.90;64.40
46730;DHT22;32476;50.002;11.854;2023-05-29T12:08:38;22.60;64.30
46730;DHT22;32476;50.002;11.854;2023-05-29T12:11:05;23.10;62.20
46730;DHT22;32476;50.002;11.854;2023-05-29T12:13:31;22.90;62.00
46730;DHT22;32476;50.002;11.854;2023-05-29T12:16:04;22.90;61.60
46730;DHT22;32476;50.002;11.854;2023-05-29T12:18:30;22.50;61.10
46730;DHT22;32476;50.002;11.854;2023-05-29T12:21:02;23.10;61.10
46730;DHT22;32476;50.002;11.854;2023-05-29T12:23:28;23.30;62.20
46730;DHT22;32476;50.002;11.854;2023-05-29T12:25:56;23.10;62.10
46730;DHT22;32476;50.002;11.854;2023-05-29T12:28:23;23.20;62.70
46730;DHT22;32476;50.002;11.854;2023-05-29T12:30:49;24.10;63.90
46730;DHT22;32476;50.002;11.854;2023-05-29T12:33:28;23.20;60.20
46730;DHT22;32476;50.002;11.854;2023-05-29T12:36:07;22.60;62.00
46730;DHT22;32476;50.002;11.854;2023-05-29T12:38:49;23.60;61.90
46730;DHT22;32476;50.002;11.854;2023-05-29T12:41:33;23.20;61.50
46730;DHT22;32476;50.002;11.854;2023-05-29T12:44:02;22.90;60.20
46730;DHT22;32476;50.002;11.854;2023-05-29T12:46:41;23.00;59.90
46730;DHT22;32476;50.002;11.854;2023-05-29T12:49:16;23.40;61.70
46730;DHT22;32476;50.002;11.854;2023-05-29T12:51:47;23.40;61.40
46730;DHT22;32476;50.002;11.854;2023-05-29T12:54:14;23.30;61.80
46730;DHT22;32476;50.002;11.854;2023-05-29T12:56:41;23.40;62.10
46730;DHT22;32476;50.002;11.854;2023-05-29T12:59:09;23.10;61.10
46730;DHT22;32476;50.002;11.854;2023-05-29T13:01:37;23.70;60.60
46730;DHT22;32476;50.002;11.854;2023-05-29T13:04:07;24.30;62.40
46730;DHT22;32476;50.002;11.854;2023-05-29T13:06:35;24.30;58.30
46730;DHT22;32476;50.002;11.854;2023-05-29T13:09:01;24.00;58.90
46730;DHT22;32476;50.002;11.854;2023-05-29T13:11:27;23.90;59.70
46730;DHT22;32476;50.002;11.854;2023-05-29T13:13:54;23.50;60.00
46730;DHT22;32476;50.002;11.854;2023-05-29T13:16:20;24.20;62.00
46730;DHT22;32476;50.002;11.854;2023-05-29T13:18:46;23.80;61.40
46730;DHT22;32476;50.002;11.854;2023-05-29T13:21:13;23.30;62.00
46730;DHT22;32476;50.002;11.854;2023-05-29T13:23:39;23.70;61.40
46730;DHT22;32476;50.002;11.854;2023-05-29T13:26:05;23.30;60.40
46730;DHT22;32476;50.002;11.854;2023-05-29T13:28:33;23.20;62.90
46730;DHT22;32476;50.002;11.854;2023-05-29T13:30:59;24.20;62.40
46730;DHT22;32476;50.002;11.854;2023-05-29T13:33:25;24.30;60.90
46730;DHT22;32476;50.002;11.854;2023-05-29T13:35:52;24.60;60.50
46730;DHT22;32476;50.002;11.854;2023-05-29T13:38:18;23.90;60.50
46730;DHT22;32476;50.002;11.854;2023-05-29T13:40:44;23.70;61.10
46730;DHT22;32476;50.002;11.854;2023-05-29T13:43:11;23.70;59.60
46730;DHT22;32476;50.002;11.854;2023-05-29T13:45:37;24.00;60.50
46730;DHT22;32476;50.002;11.854;2023-05-29T13:48:03;24.20;60.50
46730;DHT22;32476;50.002;11.854;2023-05-29T13:50:30;23.80;60.50
46730;DHT22;32476;50.002;11.854;2023-05-29T13:52:56;24.60;63.10
46730;DHT22;32476;50.002;11.854;2023-05-29T13:55:22;23.60;60.60
46730;DHT22;32476;50.002;11.854;2023-05-29T13:57:49;23.20;62.00
46730;DHT22;32476;50.002;11.854;2023-05-29T14:00:15;23.80;61.30
46730;DHT22;32476;50.002;11.854;2023-05-29T14:02:41;24.20;59.20
46730;DHT22;32476;50.002;11.854;2023-05-29T14:05:09;24.60;62.10
46730;DHT22;32476;50.002;11.854;2023-05-29T14:07:36;24.40;60.20
46730;DHT22;32476;50.002;11.854;2023-05-29T14:10:03;24.30;63.70
46730;DHT22;32476;50.002;11.854;2023-05-29T14:12:30;23.30;59.70
46730;DHT22;32476;50.002;11.854;2023-05-29T14:14:56;23.30;62.60
46730;DHT22;32476;50.002;11.854;2023-05-29T14:17:22;23.20;63.40
46730;DHT22;32476;50.002;11.854;2023-05-29T14:19:49;22.60;61.20
46730;DHT22;32476;50.002;11.854;2023-05-29T14:22:15;22.60;62.90
46730;DHT22;32476;50.002;11.854;2023-05-29T14:24:41;23.40;63.60
46730;DHT22;32476;50.002;11.854;2023-05-29T14:27:08;23.10;61.40
46730;DHT22;32476;50.002;11.854;2023-05-29T14:29:34;23.00;62.10
46730;DHT22;32476;50.002;11.854;2023-05-29T14:32:00;23.00;62.00
46730;DHT22;32476;50.002;11.854;2023-05-29T14:34:27;22.80;62.20
46730;DHT22;32476;50.002;11.854;2023-05-29T14:36:53;22.80;61.90
46730;DHT22;32476;50.002;11.854;2023-05-29T14:39:19;23.40;63.70
46730;DHT22;32476;50.002;11.854;2023-05-29T14:41:46;23.40;62.10
46730;DHT22;32476;50.002;11.854;2023-05-29T14:44:13;23.50;61.70
46730;DHT22;32476;50.002;11.854;2023-05-29T14:46:38;23.10;60.10
46730;DHT22;32476;50.002;11.854;2023-05-29T14:49:06;22.80;62.80
46730;DHT22;32476;50.002;11.854;2023-05-29T14:51:31;23.20;61.00
46730;DHT22;32476;50.002;11.854;2023-05-29T14:53:58;23.20;61.90
46730;DHT22;32476;50.002;11.854;2023-05-29T14:56:25;23.60;61.90
46730;DHT22;32476;50.002;11.854;2023-05-29T14:58:52;23.40;60.90
46730;DHT22;32476;50.002;11.854;2023-05-29T15:01:18;23.00;61.80
46730;DHT22;32476;50.002;11.854;2023-05-29T15:03:45;22.90;61.40
46730;DHT22;32476;50.002;11.854;2023-05-29T15:06:11;23.50;63.40
46730;DHT22;32476;50.002;11.854;2023-05-29T15:08:38;23.50;61.70
46730;DHT22;32476;50.002;11.854;2023-05-29T15:11:07;22.70;61.90
46730;DHT22;32476;50.002;11.854;2023-05-29T15:13:35;22.20;64.60
46730;DHT22;32476;50.002;11.854;2023-05-29T15:16:01;22.00;62.90
46730;DHT22;32476;50.002;11.854;2023-05-29T15:18:30;21.90;64.60
46730;DHT22;32476;50.002;11.854;2023-05-29T15:20:56;21.50;66.60
46730;DHT22;32476;50.002;11.854;2023-05-29T15:23:27;21.20;64.60
46730;DHT22;32476;50.002;11.854;2023-05-29T15:25:54;21.20;66.10
46730;DHT22;32476;50.002;11.854;2023-05-29T15:28:20;21.30;66.40
46730;DHT22;32476;50.002;11.854;2023-05-29T15:30:46;22.00;66.60
46730;DHT22;32476;50.002;11.854;2023-05-29T15:33:13;21.80;64.80
46730;DHT22;32476;50.002;11.854;2023-05-29T15:35:40;21.80;64.10